메인 페이지
METAR-TAF:

METAR-TAF

공항 :

Joplin Regional Airport

Joplin, 미주리, 미국

위도: 37-09-22N, 경도: 094-30-02W, 고도: 299m

현재 날씨관측

예보는 28분 전, 18:53시(UTC)에 발표되었습니다.
여러 방향의 바람 3kt
온도 17°C
습도 39%
기압 1015 hPa
시정: 16.1km
맑음

METAR: KJLN 191853Z VRB03KT 10SM CLR 17/03 A2997 RMK AO2 SLP146 T01720028

시각: 13:21 (19:21 UTC)

예보

예보는 2 시간 1분 전, 17:20시(UTC)에 발표되었습니다.
예보 대상 시간: 19일 18시부터 20일 18시까지 (UTC)
6kt
시정: 10km
맑음
20일 0200시부터 (UTC)
남동5kt
시정: 10km
고도 25000ft 상공 구름 조금
20일 0900시부터 (UTC)
남남동6kt
시정: 10km
고도 25000ft 상공 구름 조금
20일 1500시부터 (UTC)
11kt, 순간 최대 풍속 27kt
시정: 10km
고도 25000ft 상공 구름 많음

TAF: KJLN 191720Z 1918/2018 28006KT P6SM SKC FM200200 14005KT P6SM FEW250 FM200900 15006KT P6SM FEW250 WS020/19035KT FM201500 17011G27KT P6SM BKN250

4,000개 이상의 공항 관측 자료 및 예보 (METAR 및 TAF 보고).

지도상에서 검색 가능한 기상관측소가 노란 점과 빨간 점으로 표시되어 있습니다.

기상관측소 명을 보려면 표시 위로 마우스를 이동하세요.

날씨 관측과 예보를 보려면 클릭하세요.

지도 변경 : 확대하려면 엑스 표시가 있는 녹색 버튼, 축소하려면 빼기 표시가 있는 녹색 버튼, 다음 페이지의 지도를 보려면 녹색 화살표를 클릭하세요.


METAR-TAF: